createdAt,value
2022-08-30T00:02:26.299Z,6.10
2022-08-30T00:04:54.483Z,3.92
2022-08-30T00:07:22.576Z,4.15
2022-08-30T00:09:49.471Z,4.63
2022-08-30T00:12:16.428Z,4.43
2022-08-30T00:14:43.519Z,4.65
2022-08-30T00:17:10.463Z,4.07
2022-08-30T00:19:38.271Z,4.43
2022-08-30T00:22:07.304Z,5.13
2022-08-30T00:24:34.305Z,5.03
2022-08-30T00:27:01.205Z,5.28
2022-08-30T00:29:28.421Z,4.78
2022-08-30T00:31:55.321Z,4.80
2022-08-30T00:34:22.323Z,5.00
2022-08-30T00:36:49.269Z,4.13
2022-08-30T00:39:16.201Z,4.13
2022-08-30T00:41:43.154Z,4.45
2022-08-30T00:44:10.448Z,5.32
2022-08-30T00:46:37.509Z,4.95
2022-08-30T00:49:07.867Z,4.20
2022-08-30T00:51:35.487Z,4.97
2022-08-30T00:54:04.277Z,4.82
2022-08-30T00:56:32.426Z,4.10
2022-08-30T00:59:02.477Z,4.97
2022-08-30T01:01:32.218Z,5.25
2022-08-30T01:04:02.444Z,4.93
2022-08-30T01:06:32.546Z,3.92
2022-08-30T01:09:01.753Z,5.55
2022-08-30T01:11:31.195Z,4.65
2022-08-30T01:13:58.678Z,6.20
2022-08-30T01:16:27.307Z,5.10
2022-08-30T01:19:00.485Z,4.82
2022-08-30T01:21:54.532Z,4.50
2022-08-30T01:24:22.317Z,4.45
2022-08-30T01:26:49.991Z,5.65
2022-08-30T01:29:22.002Z,6.18
2022-08-30T01:31:49.535Z,7.25
2022-08-30T01:34:16.602Z,7.15
2022-08-30T01:36:46.367Z,5.80
2022-08-30T01:39:16.118Z,5.18
2022-08-30T01:41:43.776Z,4.93
2022-08-30T01:44:12.610Z,5.03
2022-08-30T01:46:43.822Z,5.07
2022-08-30T01:49:14.362Z,5.95
2022-08-30T01:51:42.217Z,5.00
2022-08-30T01:54:10.454Z,5.07
2022-08-30T01:56:37.577Z,5.65
2022-08-30T01:59:05.264Z,4.80
2022-08-30T02:01:35.951Z,5.32
2022-08-30T02:04:04.596Z,5.13
2022-08-30T02:06:31.917Z,5.03
2022-08-30T02:08:59.628Z,5.45
2022-08-30T02:11:26.945Z,4.40
2022-08-30T02:13:54.762Z,4.65
2022-08-30T02:16:23.991Z,4.22
2022-08-30T02:18:53.221Z,5.20
2022-08-30T02:21:21.317Z,6.68
2022-08-30T02:23:48.385Z,4.60
2022-08-30T02:26:16.485Z,5.95
2022-08-30T02:28:49.889Z,5.15
2022-08-30T02:31:20.377Z,4.20
2022-08-30T02:33:50.762Z,5.55
2022-08-30T02:36:18.543Z,6.55
2022-08-30T02:38:46.398Z,5.90
2022-08-30T02:41:13.730Z,5.75
2022-08-30T02:43:40.799Z,4.68
2022-08-30T02:46:08.545Z,4.43
2022-08-30T02:48:35.512Z,4.43
2022-08-30T02:51:09.524Z,4.78
2022-08-30T02:53:39.383Z,4.88
2022-08-30T02:56:06.385Z,4.10
2022-08-30T02:58:33.523Z,6.93
2022-08-30T03:01:00.558Z,9.00
2022-08-30T03:03:27.812Z,11.40
2022-08-30T03:05:54.821Z,18.23
2022-08-30T03:08:22.944Z,17.15
2022-08-30T03:10:50.387Z,18.02
2022-08-30T03:13:17.531Z,16.67
2022-08-30T03:15:44.700Z,13.88
2022-08-30T03:18:11.675Z,12.45
2022-08-30T03:20:38.873Z,11.50
2022-08-30T03:23:05.841Z,8.32
2022-08-30T03:25:33.970Z,8.50
2022-08-30T03:28:01.291Z,8.55
2022-08-30T03:30:28.363Z,10.60
2022-08-30T03:32:55.355Z,7.60
2022-08-30T03:35:22.384Z,7.43
2022-08-30T03:37:49.781Z,8.02
2022-08-30T03:40:23.437Z,6.40
2022-08-30T03:42:50.851Z,6.32
2022-08-30T03:45:19.384Z,7.35
2022-08-30T03:47:46.741Z,7.75
2022-08-30T03:50:15.770Z,7.40
2022-08-30T03:52:42.980Z,8.88
2022-08-30T03:55:10.062Z,6.93
2022-08-30T03:57:36.988Z,7.03
2022-08-30T04:00:07.060Z,15.88
2022-08-30T04:02:38.868Z,12.32
2022-08-30T04:05:06.400Z,14.00
2022-08-30T04:07:33.326Z,12.20
2022-08-30T04:10:01.052Z,13.93
2022-08-30T04:12:28.070Z,14.23
2022-08-30T04:14:55.121Z,12.63
2022-08-30T04:17:22.112Z,13.38
2022-08-30T04:19:49.038Z,14.68
2022-08-30T04:22:16.204Z,11.75
2022-08-30T04:24:43.332Z,11.93
2022-08-30T04:27:10.768Z,13.15
2022-08-30T04:29:37.777Z,11.30
2022-08-30T04:32:05.031Z,10.98
2022-08-30T04:34:32.147Z,12.30
2022-08-30T04:36:59.163Z,11.32
2022-08-30T04:39:26.226Z,9.88
2022-08-30T04:41:53.285Z,10.90
2022-08-30T04:44:20.268Z,9.18
2022-08-30T04:46:47.970Z,7.22
2022-08-30T04:49:15.063Z,7.63
2022-08-30T04:51:42.131Z,8.73
2022-08-30T04:54:09.070Z,8.60
2022-08-30T04:56:36.118Z,7.82
2022-08-30T04:59:03.104Z,8.55
2022-08-30T05:01:32.242Z,9.93
2022-08-30T05:04:13.795Z,9.50
2022-08-30T05:06:40.887Z,8.60
2022-08-30T05:09:07.776Z,8.98
2022-08-30T05:11:34.832Z,7.53
2022-08-30T05:14:01.779Z,7.72
2022-08-30T05:16:28.823Z,7.75
2022-08-30T05:18:55.896Z,7.53
2022-08-30T05:21:26.679Z,8.20
2022-08-30T05:23:56.196Z,6.63
2022-08-30T05:26:27.642Z,8.15
2022-08-30T05:28:55.236Z,8.45
2022-08-30T05:31:28.720Z,9.90
2022-08-30T05:33:56.058Z,10.57
2022-08-30T05:36:26.707Z,10.40
2022-08-30T05:38:54.734Z,13.10
2022-08-30T05:41:26.523Z,11.63
2022-08-30T05:43:56.819Z,12.18
2022-08-30T05:46:24.536Z,12.63
2022-08-30T05:48:52.108Z,11.05
2022-08-30T05:51:21.768Z,9.88
2022-08-30T05:53:50.152Z,8.50
2022-08-30T05:56:20.696Z,7.88
2022-08-30T05:58:48.174Z,8.05
2022-08-30T06:01:23.168Z,12.30
2022-08-30T06:03:53.667Z,9.82
2022-08-30T06:06:22.729Z,9.27
2022-08-30T06:08:50.486Z,9.80
2022-08-30T06:11:20.135Z,9.85
2022-08-30T06:13:48.108Z,10.73
2022-08-30T06:16:17.852Z,10.98
2022-08-30T06:18:45.212Z,7.78
2022-08-30T06:21:26.102Z,7.03
2022-08-30T06:23:54.391Z,7.68
2022-08-30T06:26:21.618Z,8.32
2022-08-30T06:28:49.479Z,10.57
2022-08-30T06:31:18.342Z,13.02
2022-08-30T06:33:45.885Z,13.30
2022-08-30T06:36:23.090Z,22.00
2022-08-30T06:38:52.364Z,24.10
2022-08-30T06:41:22.528Z,16.38
2022-08-30T06:43:50.030Z,25.98
2022-08-30T06:46:26.479Z,29.63
2022-08-30T06:48:56.095Z,26.98
2022-08-30T06:51:43.664Z,26.65
2022-08-30T06:54:12.508Z,18.73
2022-08-30T06:56:55.297Z,21.38
2022-08-30T06:59:24.792Z,14.82
2022-08-30T07:01:52.222Z,10.23
2022-08-30T07:04:19.237Z,7.47
2022-08-30T07:06:46.285Z,6.35
2022-08-30T07:09:13.231Z,6.55
2022-08-30T07:11:42.062Z,5.47
2022-08-30T07:14:09.405Z,5.00
2022-08-30T07:16:36.556Z,5.70
2022-08-30T07:19:05.427Z,5.65
2022-08-30T07:21:33.872Z,4.35
2022-08-30T07:24:01.662Z,5.72
2022-08-30T07:26:32.907Z,4.88
2022-08-30T07:29:00.049Z,5.45
2022-08-30T07:31:27.006Z,5.22
2022-08-30T07:33:54.707Z,5.38
2022-08-30T07:36:22.800Z,5.32
2022-08-30T07:38:51.558Z,5.32
2022-08-30T07:41:35.698Z,4.57
2022-08-30T07:44:02.967Z,5.07
2022-08-30T07:46:30.195Z,5.80
2022-08-30T07:49:00.088Z,6.13
2022-08-30T07:51:29.224Z,5.25
2022-08-30T07:53:56.834Z,5.03
2022-08-30T07:56:24.998Z,6.10
2022-08-30T07:58:53.042Z,4.25
2022-08-30T08:01:22.341Z,5.28
2022-08-30T08:03:50.626Z,4.22
2022-08-30T08:06:19.991Z,4.68
2022-08-30T08:08:47.201Z,4.32
2022-08-30T08:11:28.439Z,5.95
2022-08-30T08:13:58.745Z,4.93
2022-08-30T08:16:27.533Z,4.75
2022-08-30T08:18:55.510Z,4.47
2022-08-30T08:21:24.109Z,6.68
2022-08-30T08:23:51.562Z,5.03
2022-08-30T08:26:19.878Z,5.22
2022-08-30T08:28:47.505Z,3.83
2022-08-30T08:31:27.120Z,4.55
2022-08-30T08:33:56.534Z,5.18
2022-08-30T08:36:23.597Z,4.53
2022-08-30T08:38:50.679Z,4.13
2022-08-30T08:41:35.935Z,5.00
2022-08-30T08:44:19.194Z,4.00
2022-08-30T08:46:52.408Z,3.97
2022-08-30T08:49:19.613Z,3.90
2022-08-30T08:52:05.697Z,4.60
2022-08-30T08:54:52.713Z,4.20
2022-08-30T08:57:24.462Z,6.78
2022-08-30T08:59:54.596Z,4.65
2022-08-30T09:02:30.344Z,5.18
2022-08-30T09:05:02.081Z,6.07
2022-08-30T09:07:41.414Z,5.43
2022-08-30T09:10:08.925Z,3.63
2022-08-30T09:12:36.153Z,4.05
2022-08-30T09:15:11.717Z,4.40
2022-08-30T09:17:52.502Z,3.08
2022-08-30T09:20:41.413Z,3.13
2022-08-30T09:23:14.416Z,3.05
2022-08-30T09:26:05.401Z,3.08
2022-08-30T09:28:43.920Z,3.60
2022-08-30T09:31:23.718Z,2.90
2022-08-30T09:34:15.835Z,2.78
2022-08-30T09:36:52.067Z,3.30
2022-08-30T09:39:41.486Z,8.80
2022-08-30T09:42:20.818Z,4.85
2022-08-30T09:44:47.862Z,7.00
2022-08-30T09:47:31.772Z,3.58
2022-08-30T09:50:27.339Z,6.03
2022-08-30T09:53:11.931Z,4.95
2022-08-30T09:56:03.637Z,5.93
2022-08-30T09:58:52.417Z,3.92
2022-08-30T10:01:24.979Z,3.22
2022-08-30T10:04:02.473Z,2.97
2022-08-30T10:07:16.499Z,4.05
2022-08-30T10:10:03.007Z,2.92
2022-08-30T10:12:57.292Z,4.13
2022-08-30T10:15:30.980Z,4.03
2022-08-30T10:20:59.670Z,2.97
2022-08-30T10:23:40.804Z,4.10
2022-08-30T10:26:26.626Z,4.10
2022-08-30T10:29:04.583Z,3.70
2022-08-30T10:31:56.526Z,2.85
2022-08-30T10:34:54.639Z,3.60
2022-08-30T10:37:25.709Z,3.65
2022-08-30T10:40:22.473Z,4.15
2022-08-30T10:42:52.864Z,3.72
2022-08-30T10:45:22.324Z,3.80
2022-08-30T10:47:59.860Z,4.68
2022-08-30T10:50:41.033Z,3.22
2022-08-30T10:53:21.575Z,3.80
2022-08-30T10:56:05.980Z,3.80
2022-08-30T10:58:33.506Z,4.25
2022-08-30T11:01:06.198Z,3.65
2022-08-30T11:03:39.832Z,4.85
2022-08-30T11:06:27.576Z,3.38
2022-08-30T11:09:09.928Z,3.70
2022-08-30T11:11:40.773Z,3.40
2022-08-30T11:14:12.894Z,3.03
2022-08-30T11:16:44.132Z,3.85
2022-08-30T11:19:35.324Z,3.20
2022-08-30T11:22:21.946Z,3.75
2022-08-30T11:25:10.006Z,3.30
2022-08-30T11:27:51.472Z,3.58
2022-08-30T11:30:26.727Z,3.13
2022-08-30T11:33:17.478Z,3.85
2022-08-30T11:35:52.771Z,3.08
2022-08-30T11:41:30.060Z,2.38
2022-08-30T11:44:13.583Z,6.13
2022-08-30T11:46:42.282Z,4.68
2022-08-30T11:49:15.616Z,3.95
2022-08-30T11:55:03.835Z,4.20
2022-08-30T11:57:52.214Z,4.38
2022-08-30T12:00:35.134Z,2.80
2022-08-30T12:03:07.732Z,4.00
2022-08-30T12:05:48.192Z,3.53
2022-08-30T12:08:21.337Z,4.57
2022-08-30T12:11:11.257Z,4.03
2022-08-30T12:13:38.211Z,2.85
2022-08-30T12:16:14.223Z,3.60
2022-08-30T12:18:49.649Z,3.88
2022-08-30T12:21:22.710Z,3.58
2022-08-30T12:24:04.365Z,3.25
2022-08-30T12:26:38.218Z,3.17
2022-08-30T12:29:26.953Z,3.50
2022-08-30T12:31:59.105Z,4.50
2022-08-30T12:34:41.020Z,3.60
2022-08-30T12:37:28.894Z,4.43
2022-08-30T12:40:23.346Z,4.20
2022-08-30T12:43:00.360Z,3.92
2022-08-30T12:45:50.600Z,4.78
2022-08-30T12:48:19.746Z,3.20
2022-08-30T12:50:54.461Z,4.35
2022-08-30T12:53:27.962Z,5.38
2022-08-30T12:58:36.919Z,4.20
2022-08-30T13:01:18.517Z,5.00
2022-08-30T13:03:59.809Z,5.07
2022-08-30T13:06:43.875Z,4.28
2022-08-30T13:09:39.143Z,5.10
2022-08-30T13:12:09.930Z,5.28
2022-08-30T13:14:43.596Z,4.20
2022-08-30T13:17:20.418Z,3.95
2022-08-30T13:20:22.197Z,3.85
2022-08-30T13:23:09.758Z,3.65
2022-08-30T13:25:39.736Z,5.20
2022-08-30T13:28:08.445Z,3.88
2022-08-30T13:30:36.075Z,4.65
2022-08-30T13:33:03.298Z,3.40
2022-08-30T13:35:31.880Z,3.83
2022-08-30T13:38:02.035Z,4.43
2022-08-30T13:40:29.194Z,3.70
2022-08-30T13:42:56.980Z,4.07
2022-08-30T13:45:41.700Z,3.88
2022-08-30T13:48:10.913Z,4.07
2022-08-30T13:50:38.267Z,3.25
2022-08-30T13:53:05.863Z,3.88
2022-08-30T13:55:33.850Z,3.92
2022-08-30T13:58:00.857Z,3.92
2022-08-30T14:00:28.858Z,3.78
2022-08-30T14:02:57.553Z,4.68
2022-08-30T14:06:10.219Z,3.88
2022-08-30T14:08:45.197Z,3.70
2022-08-30T14:11:18.508Z,4.30
2022-08-30T14:16:36.105Z,4.38
2022-08-30T14:19:03.576Z,4.35
2022-08-30T14:21:33.145Z,3.47
2022-08-30T14:24:00.279Z,3.65
2022-08-30T14:26:32.750Z,4.13
2022-08-30T14:29:03.546Z,3.50
2022-08-30T14:31:32.717Z,4.22
2022-08-30T14:34:01.534Z,3.70
2022-08-30T14:36:30.957Z,4.75
2022-08-30T14:38:58.501Z,3.97
2022-08-30T14:41:25.697Z,3.38
2022-08-30T14:43:53.030Z,3.45
2022-08-30T14:46:20.279Z,5.18
2022-08-30T14:48:47.256Z,4.82
2022-08-30T14:51:18.782Z,3.30
2022-08-30T14:53:47.106Z,4.07
2022-08-30T14:56:16.776Z,4.45
2022-08-30T14:58:50.749Z,4.00
2022-08-30T15:01:19.225Z,5.28
2022-08-30T15:03:46.675Z,4.30
2022-08-30T15:06:14.267Z,4.50
2022-08-30T15:08:41.675Z,4.60
2022-08-30T15:11:17.852Z,4.97
2022-08-30T15:13:45.868Z,3.83
2022-08-30T15:16:20.544Z,4.72
2022-08-30T15:18:48.171Z,3.67
2022-08-30T15:21:21.889Z,4.18
2022-08-30T15:23:49.732Z,4.93
2022-08-30T15:26:18.570Z,5.10
2022-08-30T15:28:45.558Z,4.90
2022-08-30T15:31:13.095Z,5.38
2022-08-30T15:33:40.292Z,4.18
2022-08-30T15:36:09.003Z,4.18
2022-08-30T15:38:36.500Z,4.78
2022-08-30T15:41:07.459Z,3.95
2022-08-30T15:43:35.125Z,4.05
2022-08-30T15:46:19.662Z,5.22
2022-08-30T15:48:47.177Z,4.22
2022-08-30T15:51:16.761Z,4.45
2022-08-30T15:53:45.197Z,5.80
2022-08-30T15:56:12.546Z,5.35
2022-08-30T15:58:40.175Z,5.03
2022-08-30T16:01:07.930Z,4.93
2022-08-30T16:03:35.967Z,4.97
2022-08-30T16:06:05.098Z,4.63
2022-08-30T16:08:32.102Z,5.60
2022-08-30T16:10:59.004Z,4.95
2022-08-30T16:13:25.885Z,4.72
2022-08-30T16:15:52.914Z,5.38
2022-08-30T16:18:19.905Z,4.68
2022-08-30T16:20:47.412Z,4.50
2022-08-30T16:23:14.369Z,5.40
2022-08-30T16:25:41.546Z,4.10
2022-08-30T16:28:09.572Z,4.82
2022-08-30T16:30:37.177Z,4.70
2022-08-30T16:33:04.289Z,4.03
2022-08-30T16:35:33.118Z,3.95
2022-08-30T16:38:00.116Z,5.55
2022-08-30T16:40:27.572Z,4.88
2022-08-30T16:42:54.562Z,5.18
2022-08-30T16:45:21.501Z,5.25
2022-08-30T16:47:51.124Z,4.95
2022-08-30T16:50:21.600Z,4.93
2022-08-30T16:52:48.515Z,5.30
2022-08-30T16:55:16.038Z,4.60
2022-08-30T16:57:43.952Z,4.47
2022-08-30T17:00:13.263Z,5.45
2022-08-30T17:02:42.659Z,4.47
2022-08-30T17:05:21.233Z,5.32
2022-08-30T17:07:48.119Z,4.28
2022-08-30T17:10:15.556Z,5.85
2022-08-30T17:12:50.254Z,6.90
2022-08-30T17:15:17.615Z,4.53
2022-08-30T17:17:44.678Z,6.22
2022-08-30T17:20:12.612Z,6.75
2022-08-30T17:22:40.444Z,5.38
2022-08-30T17:25:08.740Z,6.88
2022-08-30T17:27:36.271Z,6.10
2022-08-30T17:30:06.711Z,6.63
2022-08-30T17:32:34.385Z,6.50
2022-08-30T17:35:02.122Z,6.25
2022-08-30T17:37:29.038Z,6.53
2022-08-30T17:39:56.185Z,6.50
2022-08-30T17:42:23.139Z,7.43
2022-08-30T17:44:58.031Z,5.67
2022-08-30T17:47:28.287Z,5.75
2022-08-30T17:49:55.650Z,6.90
2022-08-30T17:52:22.558Z,5.60
2022-08-30T17:54:50.662Z,6.55
2022-08-30T17:57:18.202Z,6.63
2022-08-30T17:59:45.911Z,7.25
2022-08-30T18:02:14.511Z,6.97
2022-08-30T18:04:42.716Z,6.05
2022-08-30T18:09:58.853Z,7.68
2022-08-30T18:12:27.585Z,5.93
2022-08-30T18:14:54.503Z,8.90
2022-08-30T18:17:21.637Z,5.10
2022-08-30T18:19:49.069Z,5.72
2022-08-30T18:22:16.723Z,5.45
2022-08-30T18:24:44.982Z,6.05
2022-08-30T18:27:12.130Z,5.93
2022-08-30T18:29:40.535Z,5.28
2022-08-30T18:32:09.206Z,6.38
2022-08-30T18:34:36.444Z,5.97
2022-08-30T18:37:03.502Z,5.65
2022-08-30T18:39:34.643Z,6.07
2022-08-30T18:42:02.965Z,5.82
2022-08-30T18:44:33.291Z,6.05
2022-08-30T18:47:01.950Z,6.00
2022-08-30T18:49:32.781Z,5.38
2022-08-30T18:52:01.059Z,5.50
2022-08-30T18:54:28.194Z,6.60
2022-08-30T18:56:55.177Z,5.07
2022-08-30T18:59:22.090Z,5.75
2022-08-30T19:01:50.266Z,5.57
2022-08-30T19:04:22.417Z,6.95
2022-08-30T19:06:57.342Z,5.30
2022-08-30T19:09:24.281Z,7.57
2022-08-30T19:11:53.969Z,5.55
2022-08-30T19:14:20.912Z,6.93
2022-08-30T19:16:48.236Z,6.70
2022-08-30T19:19:15.672Z,6.43
2022-08-30T19:21:42.876Z,5.85
2022-08-30T19:24:10.134Z,6.45
2022-08-30T19:26:38.496Z,6.68
2022-08-30T19:29:06.526Z,5.78
2022-08-30T19:31:34.122Z,5.97
2022-08-30T19:34:01.148Z,6.28
2022-08-30T19:36:29.046Z,6.38
2022-08-30T19:38:56.225Z,5.80
2022-08-30T19:41:23.747Z,5.63
2022-08-30T19:43:51.993Z,6.95
2022-08-30T19:46:18.907Z,5.80
2022-08-30T19:48:45.870Z,6.07
2022-08-30T19:51:15.190Z,6.80
2022-08-30T19:53:43.470Z,7.00
2022-08-30T19:56:11.617Z,7.07
2022-08-30T19:58:39.023Z,6.53
2022-08-30T20:01:12.345Z,7.88
2022-08-30T20:03:54.390Z,6.75
2022-08-30T20:06:23.950Z,7.47
2022-08-30T20:08:50.919Z,6.40
2022-08-30T20:11:23.616Z,6.50
2022-08-30T20:13:50.684Z,5.93
2022-08-30T20:16:17.981Z,5.90
2022-08-30T20:18:45.376Z,6.63
2022-08-30T20:21:14.683Z,5.97
2022-08-30T20:23:43.295Z,6.18
2022-08-30T20:24:26.427Z,5.32
2022-08-30T20:26:11.851Z,5.90
2022-08-30T20:28:39.902Z,6.82
2022-08-30T20:31:08.146Z,4.93
2022-08-30T20:33:39.258Z,5.13
2022-08-30T20:36:09.928Z,4.85
2022-08-30T20:38:37.633Z,5.45
2022-08-30T20:41:10.948Z,4.90
2022-08-30T20:43:38.681Z,5.40
2022-08-30T20:46:14.884Z,5.50
2022-08-30T20:48:43.568Z,5.38
2022-08-30T20:51:15.559Z,5.15
2022-08-30T20:53:43.396Z,6.00
2022-08-30T20:56:16.533Z,7.43
2022-08-30T20:58:44.063Z,5.28
2022-08-30T21:01:11.918Z,5.68
2022-08-30T21:03:40.243Z,6.28
2022-08-30T21:06:07.615Z,4.63
2022-08-30T21:08:34.905Z,4.95
2022-08-30T21:11:02.141Z,5.70
2022-08-30T21:13:30.112Z,6.25
2022-08-30T21:16:00.621Z,6.35
2022-08-30T21:18:33.214Z,6.57
2022-08-30T21:21:08.350Z,6.80
2022-08-30T21:23:35.849Z,6.65
2022-08-30T21:26:09.764Z,7.18
2022-08-30T21:28:36.966Z,7.33
2022-08-30T21:31:07.383Z,5.50
2022-08-30T21:33:34.788Z,5.82
2022-08-30T21:36:20.503Z,6.55
2022-08-30T21:38:47.503Z,5.82
2022-08-30T21:41:15.102Z,5.25
2022-08-30T21:43:42.017Z,6.22
2022-08-30T21:46:10.451Z,5.82
2022-08-30T21:48:37.831Z,5.75
2022-08-30T21:51:09.873Z,5.95
2022-08-30T21:53:37.729Z,6.05
2022-08-30T21:56:31.930Z,5.50
2022-08-30T21:58:58.950Z,6.80
2022-08-30T22:01:28.852Z,6.03
2022-08-30T22:03:58.380Z,6.85
2022-08-30T22:06:30.776Z,6.55
2022-08-30T22:09:01.254Z,7.40
2022-08-30T22:11:29.391Z,7.28
2022-08-30T22:13:56.365Z,8.27
2022-08-30T22:16:24.309Z,7.18
2022-08-30T22:18:51.542Z,6.35
2022-08-30T22:21:22.961Z,6.38
2022-08-30T22:23:50.871Z,6.63
2022-08-30T22:26:19.372Z,5.63
2022-08-30T22:28:46.890Z,5.72
2022-08-30T22:31:15.568Z,5.68
2022-08-30T22:33:43.863Z,5.40
2022-08-30T22:36:14.713Z,5.35
2022-08-30T22:38:41.661Z,5.00
2022-08-30T22:41:16.663Z,4.78
2022-08-30T22:43:44.837Z,4.78
2022-08-30T22:46:12.420Z,6.90
2022-08-30T22:48:41.937Z,6.55
2022-08-30T22:51:10.884Z,6.72
2022-08-30T22:53:37.880Z,5.80
2022-08-30T22:56:20.603Z,6.90
2022-08-30T22:58:48.780Z,5.95
2022-08-30T23:01:20.538Z,6.70
2022-08-30T23:03:47.567Z,6.13
2022-08-30T23:06:14.555Z,5.78
2022-08-30T23:11:08.904Z,5.72
2022-08-30T23:13:35.893Z,6.35
2022-08-30T23:16:05.390Z,5.57
2022-08-30T23:18:33.207Z,6.00
2022-08-30T23:21:13.046Z,6.18
2022-08-30T23:23:59.480Z,6.15
2022-08-30T23:26:45.573Z,5.15
2022-08-30T23:29:31.735Z,5.65
2022-08-30T23:32:17.345Z,5.85
2022-08-30T23:35:03.435Z,5.20
2022-08-30T23:37:53.131Z,6.00
2022-08-30T23:40:40.899Z,6.00
2022-08-30T23:43:27.412Z,6.47
2022-08-30T23:46:18.778Z,6.70
2022-08-30T23:49:06.445Z,6.72
2022-08-30T23:51:52.620Z,6.57
2022-08-30T23:54:38.185Z,8.02
2022-08-30T23:57:24.294Z,6.82
